sensor_id;sensor_type;location;lat;lon;timestamp;P1;durP1;ratioP1;P2;durP2;ratioP2
63874;SDS011;51595;24.180;-110.296;2023-07-31T00:01:35;0.70;;;0.70;;
63874;SDS011;51595;24.180;-110.296;2023-07-31T00:04:01;2.95;;;1.10;;
63874;SDS011;51595;24.180;-110.296;2023-07-31T00:06:29;1.35;;;0.95;;
63874;SDS011;51595;24.180;-110.296;2023-07-31T00:08:56;2.63;;;1.00;;
63874;SDS011;51595;24.180;-110.296;2023-07-31T00:11:22;1.80;;;1.30;;
63874;SDS011;51595;24.180;-110.296;2023-07-31T00:13:49;1.58;;;0.88;;
63874;SDS011;51595;24.180;-110.296;2023-07-31T00:16:15;4.68;;;1.40;;
63874;SDS011;51595;24.180;-110.296;2023-07-31T00:18:42;1.05;;;0.95;;
63874;SDS011;51595;24.180;-110.296;2023-07-31T00:21:08;1.33;;;0.70;;
63874;SDS011;51595;24.180;-110.296;2023-07-31T00:23:35;2.33;;;1.08;;
63874;SDS011;51595;24.180;-110.296;2023-07-31T00:26:02;1.73;;;1.10;;
63874;SDS011;51595;24.180;-110.296;2023-07-31T00:28:29;1.55;;;0.73;;
63874;SDS011;51595;24.180;-110.296;2023-07-31T00:30:55;1.25;;;0.80;;
63874;SDS011;51595;24.180;-110.296;2023-07-31T00:33:22;3.33;;;1.17;;
63874;SDS011;51595;24.180;-110.296;2023-07-31T00:35:48;4.55;;;1.35;;
63874;SDS011;51595;24.180;-110.296;2023-07-31T00:38:15;3.22;;;1.42;;
63874;SDS011;51595;24.180;-110.296;2023-07-31T00:40:45;1.02;;;0.90;;
63874;SDS011;51595;24.180;-110.296;2023-07-31T00:43:11;0.82;;;0.80;;
63874;SDS011;51595;24.180;-110.296;2023-07-31T00:45:38;1.23;;;1.08;;
63874;SDS011;51595;24.180;-110.296;2023-07-31T00:48:04;4.43;;;1.50;;
63874;SDS011;51595;24.180;-110.296;2023-07-31T00:50:33;2.67;;;1.20;;
63874;SDS011;51595;24.180;-110.296;2023-07-31T00:53:00;3.63;;;1.17;;
63874;SDS011;51595;24.180;-110.296;2023-07-31T00:55:27;0.90;;;0.90;;
63874;SDS011;51595;24.180;-110.296;2023-07-31T00:57:53;1.75;;;0.80;;
63874;SDS011;51595;24.180;-110.296;2023-07-31T01:00:21;0.85;;;0.70;;
63874;SDS011;51595;24.180;-110.296;2023-07-31T01:02:50;5.10;;;1.60;;
63874;SDS011;51595;24.180;-110.296;2023-07-31T01:05:19;4.95;;;1.10;;
63874;SDS011;51595;24.180;-110.296;2023-07-31T01:08:19;2.45;;;1.13;;
63874;SDS011;51595;24.180;-110.296;2023-07-31T01:10:52;2.67;;;1.23;;
63874;SDS011;51595;24.180;-110.296;2023-07-31T01:13:22;0.68;;;0.65;;
63874;SDS011;51595;24.180;-110.296;2023-07-31T01:15:49;1.90;;;1.00;;
63874;SDS011;51595;24.180;-110.296;2023-07-31T01:18:15;2.20;;;1.00;;
63874;SDS011;51595;24.180;-110.296;2023-07-31T01:20:43;1.27;;;0.85;;
63874;SDS011;51595;24.180;-110.296;2023-07-31T01:26:10;3.10;;;1.25;;
63874;SDS011;51595;24.180;-110.296;2023-07-31T01:28:53;2.35;;;1.00;;
63874;SDS011;51595;24.180;-110.296;2023-07-31T01:31:36;1.08;;;0.90;;
63874;SDS011;51595;24.180;-110.296;2023-07-31T01:34:05;4.10;;;1.30;;
63874;SDS011;51595;24.180;-110.296;2023-07-31T01:36:34;1.90;;;0.90;;
63874;SDS011;51595;24.180;-110.296;2023-07-31T01:39:01;1.33;;;1.10;;
63874;SDS011;51595;24.180;-110.296;2023-07-31T01:41:29;3.95;;;1.73;;
63874;SDS011;51595;24.180;-110.296;2023-07-31T01:43:56;2.17;;;1.30;;
63874;SDS011;51595;24.180;-110.296;2023-07-31T01:46:22;2.00;;;1.23;;
63874;SDS011;51595;24.180;-110.296;2023-07-31T01:48:49;1.92;;;1.30;;
63874;SDS011;51595;24.180;-110.296;2023-07-31T01:51:15;11.75;;;1.20;;
63874;SDS011;51595;24.180;-110.296;2023-07-31T01:53:42;1.98;;;1.30;;
63874;SDS011;51595;24.180;-110.296;2023-07-31T01:56:08;3.50;;;1.63;;
63874;SDS011;51595;24.180;-110.296;2023-07-31T01:58:36;4.82;;;1.48;;
63874;SDS011;51595;24.180;-110.296;2023-07-31T02:01:05;4.35;;;1.77;;
63874;SDS011;51595;24.180;-110.296;2023-07-31T02:03:32;9.32;;;1.58;;
63874;SDS011;51595;24.180;-110.296;2023-07-31T02:05:58;3.05;;;1.42;;
63874;SDS011;51595;24.180;-110.296;2023-07-31T02:08:25;1.58;;;1.20;;
63874;SDS011;51595;24.180;-110.296;2023-07-31T02:10:51;2.05;;;1.35;;
63874;SDS011;51595;24.180;-110.296;2023-07-31T02:13:18;2.10;;;1.30;;
63874;SDS011;51595;24.180;-110.296;2023-07-31T02:15:45;7.38;;;1.77;;
63874;SDS011;51595;24.180;-110.296;2023-07-31T02:18:11;5.20;;;1.88;;
63874;SDS011;51595;24.180;-110.296;2023-07-31T02:20:39;1.92;;;1.10;;
63874;SDS011;51595;24.180;-110.296;2023-07-31T02:23:05;2.97;;;1.38;;
63874;SDS011;51595;24.180;-110.296;2023-07-31T02:25:32;4.07;;;1.45;;
63874;SDS011;51595;24.180;-110.296;2023-07-31T02:27:58;3.28;;;1.25;;
63874;SDS011;51595;24.180;-110.296;2023-07-31T02:30:25;2.25;;;1.30;;
63874;SDS011;51595;24.180;-110.296;2023-07-31T02:32:51;4.90;;;1.65;;
63874;SDS011;51595;24.180;-110.296;2023-07-31T02:35:19;4.30;;;1.88;;
63874;SDS011;51595;24.180;-110.296;2023-07-31T02:37:45;6.45;;;1.80;;
63874;SDS011;51595;24.180;-110.296;2023-07-31T02:40:13;2.75;;;1.52;;
63874;SDS011;51595;24.180;-110.296;2023-07-31T02:42:39;4.82;;;1.52;;
63874;SDS011;51595;24.180;-110.296;2023-07-31T02:45:06;3.45;;;1.85;;
63874;SDS011;51595;24.180;-110.296;2023-07-31T02:47:33;3.58;;;1.88;;
63874;SDS011;51595;24.180;-110.296;2023-07-31T02:50:00;2.83;;;1.75;;
63874;SDS011;51595;24.180;-110.296;2023-07-31T02:52:30;4.15;;;2.22;;
63874;SDS011;51595;24.180;-110.296;2023-07-31T02:54:57;3.72;;;1.92;;
63874;SDS011;51595;24.180;-110.296;2023-07-31T02:57:25;3.70;;;2.22;;
63874;SDS011;51595;24.180;-110.296;2023-07-31T02:59:51;8.98;;;2.05;;
63874;SDS011;51595;24.180;-110.296;2023-07-31T03:02:19;3.88;;;1.92;;
63874;SDS011;51595;24.180;-110.296;2023-07-31T03:04:45;3.00;;;1.77;;
63874;SDS011;51595;24.180;-110.296;2023-07-31T03:07:12;7.47;;;2.65;;
63874;SDS011;51595;24.180;-110.296;2023-07-31T03:09:40;5.25;;;1.67;;
63874;SDS011;51595;24.180;-110.296;2023-07-31T03:12:07;2.20;;;1.40;;
63874;SDS011;51595;24.180;-110.296;2023-07-31T03:14:33;7.00;;;2.05;;
63874;SDS011;51595;24.180;-110.296;2023-07-31T03:17:01;5.20;;;2.35;;
63874;SDS011;51595;24.180;-110.296;2023-07-31T03:19:30;4.07;;;1.80;;
63874;SDS011;51595;24.180;-110.296;2023-07-31T03:21:57;5.47;;;2.03;;
63874;SDS011;51595;24.180;-110.296;2023-07-31T03:24:25;5.18;;;2.03;;
63874;SDS011;51595;24.180;-110.296;2023-07-31T03:26:51;4.97;;;2.38;;
63874;SDS011;51595;24.180;-110.296;2023-07-31T03:29:20;9.68;;;2.45;;
63874;SDS011;51595;24.180;-110.296;2023-07-31T03:31:46;3.17;;;2.03;;
63874;SDS011;51595;24.180;-110.296;2023-07-31T03:34:12;5.15;;;1.65;;
63874;SDS011;51595;24.180;-110.296;2023-07-31T03:36:39;11.45;;;2.53;;
63874;SDS011;51595;24.180;-110.296;2023-07-31T03:39:05;3.67;;;1.83;;
63874;SDS011;51595;24.180;-110.296;2023-07-31T03:41:34;3.35;;;1.70;;
63874;SDS011;51595;24.180;-110.296;2023-07-31T03:44:00;5.55;;;2.20;;
63874;SDS011;51595;24.180;-110.296;2023-07-31T03:46:26;4.38;;;2.03;;
63874;SDS011;51595;24.180;-110.296;2023-07-31T03:48:53;4.85;;;1.88;;
63874;SDS011;51595;24.180;-110.296;2023-07-31T03:51:21;5.50;;;1.65;;
63874;SDS011;51595;24.180;-110.296;2023-07-31T03:53:49;6.25;;;2.47;;
63874;SDS011;51595;24.180;-110.296;2023-07-31T03:56:15;3.08;;;1.63;;
63874;SDS011;51595;24.180;-110.296;2023-07-31T03:58:43;4.43;;;1.67;;
63874;SDS011;51595;24.180;-110.296;2023-07-31T04:01:11;5.68;;;2.13;;
63874;SDS011;51595;24.180;-110.296;2023-07-31T04:03:37;2.67;;;1.83;;
63874;SDS011;51595;24.180;-110.296;2023-07-31T04:06:03;4.57;;;2.03;;
63874;SDS011;51595;24.180;-110.296;2023-07-31T04:08:32;6.85;;;1.75;;
63874;SDS011;51595;24.180;-110.296;2023-07-31T04:11:01;2.25;;;1.60;;
63874;SDS011;51595;24.180;-110.296;2023-07-31T04:13:29;2.28;;;1.30;;
63874;SDS011;51595;24.180;-110.296;2023-07-31T04:15:56;5.13;;;1.80;;
63874;SDS011;51595;24.180;-110.296;2023-07-31T04:18:24;5.20;;;1.83;;
63874;SDS011;51595;24.180;-110.296;2023-07-31T04:20:51;5.30;;;1.75;;
63874;SDS011;51595;24.180;-110.296;2023-07-31T04:23:19;8.18;;;2.42;;
63874;SDS011;51595;24.180;-110.296;2023-07-31T04:25:45;7.68;;;2.00;;
63874;SDS011;51595;24.180;-110.296;2023-07-31T04:28:13;6.45;;;1.45;;
63874;SDS011;51595;24.180;-110.296;2023-07-31T04:30:41;3.28;;;1.88;;
63874;SDS011;51595;24.180;-110.296;2023-07-31T04:33:07;5.07;;;2.40;;
63874;SDS011;51595;24.180;-110.296;2023-07-31T04:35:34;7.70;;;2.00;;
63874;SDS011;51595;24.180;-110.296;2023-07-31T04:38:00;6.20;;;1.92;;
63874;SDS011;51595;24.180;-110.296;2023-07-31T04:40:27;5.47;;;2.40;;
63874;SDS011;51595;24.180;-110.296;2023-07-31T04:42:53;5.53;;;2.13;;
63874;SDS011;51595;24.180;-110.296;2023-07-31T04:45:21;4.63;;;1.98;;
63874;SDS011;51595;24.180;-110.296;2023-07-31T04:47:47;10.95;;;1.85;;
63874;SDS011;51595;24.180;-110.296;2023-07-31T04:50:15;5.97;;;2.00;;
63874;SDS011;51595;24.180;-110.296;2023-07-31T04:52:41;7.72;;;1.85;;
63874;SDS011;51595;24.180;-110.296;2023-07-31T04:55:08;6.65;;;2.38;;
63874;SDS011;51595;24.180;-110.296;2023-07-31T04:57:34;4.68;;;1.95;;
63874;SDS011;51595;24.180;-110.296;2023-07-31T05:00:01;9.68;;;2.08;;
63874;SDS011;51595;24.180;-110.296;2023-07-31T05:02:28;5.47;;;2.10;;
63874;SDS011;51595;24.180;-110.296;2023-07-31T05:04:54;8.95;;;2.47;;
63874;SDS011;51595;24.180;-110.296;2023-07-31T05:07:22;3.53;;;2.15;;
63874;SDS011;51595;24.180;-110.296;2023-07-31T05:09:48;6.57;;;1.52;;
63874;SDS011;51595;24.180;-110.296;2023-07-31T05:12:15;5.50;;;2.00;;
63874;SDS011;51595;24.180;-110.296;2023-07-31T05:14:41;6.32;;;1.92;;
63874;SDS011;51595;24.180;-110.296;2023-07-31T05:17:08;9.02;;;2.63;;
63874;SDS011;51595;24.180;-110.296;2023-07-31T05:19:34;3.47;;;1.88;;
63874;SDS011;51595;24.180;-110.296;2023-07-31T05:22:01;12.77;;;2.25;;
63874;SDS011;51595;24.180;-110.296;2023-07-31T05:24:27;5.43;;;2.17;;
63874;SDS011;51595;24.180;-110.296;2023-07-31T05:26:54;4.13;;;2.10;;
63874;SDS011;51595;24.180;-110.296;2023-07-31T05:29:20;7.40;;;2.08;;
63874;SDS011;51595;24.180;-110.296;2023-07-31T05:31:48;4.57;;;2.10;;
63874;SDS011;51595;24.180;-110.296;2023-07-31T05:34:14;3.90;;;1.92;;
63874;SDS011;51595;24.180;-110.296;2023-07-31T05:36:40;3.70;;;1.70;;
63874;SDS011;51595;24.180;-110.296;2023-07-31T05:39:09;12.75;;;2.55;;
63874;SDS011;51595;24.180;-110.296;2023-07-31T05:41:35;11.07;;;2.20;;
63874;SDS011;51595;24.180;-110.296;2023-07-31T05:44:02;10.85;;;2.03;;
63874;SDS011;51595;24.180;-110.296;2023-07-31T05:46:28;4.70;;;2.38;;
63874;SDS011;51595;24.180;-110.296;2023-07-31T05:48:56;5.85;;;2.25;;
63874;SDS011;51595;24.180;-110.296;2023-07-31T05:51:26;4.72;;;1.90;;
63874;SDS011;51595;24.180;-110.296;2023-07-31T05:53:53;11.18;;;2.50;;
63874;SDS011;51595;24.180;-110.296;2023-07-31T05:56:20;4.93;;;1.77;;
63874;SDS011;51595;24.180;-110.296;2023-07-31T05:58:47;7.65;;;2.47;;
63874;SDS011;51595;24.180;-110.296;2023-07-31T06:01:15;5.05;;;2.20;;
63874;SDS011;51595;24.180;-110.296;2023-07-31T06:03:42;2.97;;;1.83;;
63874;SDS011;51595;24.180;-110.296;2023-07-31T06:06:09;6.65;;;1.75;;
63874;SDS011;51595;24.180;-110.296;2023-07-31T06:08:36;5.68;;;2.00;;
63874;SDS011;51595;24.180;-110.296;2023-07-31T06:11:02;5.95;;;1.80;;
63874;SDS011;51595;24.180;-110.296;2023-07-31T06:13:29;7.45;;;2.25;;
63874;SDS011;51595;24.180;-110.296;2023-07-31T06:15:55;6.63;;;2.28;;
63874;SDS011;51595;24.180;-110.296;2023-07-31T06:18:24;10.65;;;2.42;;
63874;SDS011;51595;24.180;-110.296;2023-07-31T06:20:51;8.48;;;2.78;;
63874;SDS011;51595;24.180;-110.296;2023-07-31T06:23:19;8.85;;;2.13;;
63874;SDS011;51595;24.180;-110.296;2023-07-31T06:25:46;3.00;;;1.92;;
63874;SDS011;51595;24.180;-110.296;2023-07-31T06:28:12;4.72;;;1.77;;
63874;SDS011;51595;24.180;-110.296;2023-07-31T06:30:39;9.00;;;2.17;;
63874;SDS011;51595;24.180;-110.296;2023-07-31T06:33:05;2.70;;;1.50;;
63874;SDS011;51595;24.180;-110.296;2023-07-31T06:35:33;3.78;;;1.83;;
63874;SDS011;51595;24.180;-110.296;2023-07-31T06:38:02;5.97;;;2.85;;
63874;SDS011;51595;24.180;-110.296;2023-07-31T06:40:30;5.10;;;2.22;;
63874;SDS011;51595;24.180;-110.296;2023-07-31T06:42:58;12.88;;;2.63;;
63874;SDS011;51595;24.180;-110.296;2023-07-31T06:45:24;5.60;;;2.13;;
63874;SDS011;51595;24.180;-110.296;2023-07-31T06:47:51;7.68;;;2.38;;
63874;SDS011;51595;24.180;-110.296;2023-07-31T06:50:18;7.13;;;1.90;;
63874;SDS011;51595;24.180;-110.296;2023-07-31T06:52:45;5.10;;;2.28;;
63874;SDS011;51595;24.180;-110.296;2023-07-31T06:55:18;7.07;;;2.50;;
63874;SDS011;51595;24.180;-110.296;2023-07-31T06:57:49;6.07;;;2.33;;
63874;SDS011;51595;24.180;-110.296;2023-07-31T07:00:17;9.50;;;2.63;;
63874;SDS011;51595;24.180;-110.296;2023-07-31T07:02:44;7.43;;;2.47;;
63874;SDS011;51595;24.180;-110.296;2023-07-31T07:05:15;6.13;;;2.17;;
63874;SDS011;51595;24.180;-110.296;2023-07-31T07:07:44;5.57;;;2.40;;
63874;SDS011;51595;24.180;-110.296;2023-07-31T07:10:17;8.18;;;2.47;;
63874;SDS011;51595;24.180;-110.296;2023-07-31T07:12:44;9.45;;;1.90;;
63874;SDS011;51595;24.180;-110.296;2023-07-31T07:15:10;5.45;;;2.42;;
63874;SDS011;51595;24.180;-110.296;2023-07-31T07:17:37;4.63;;;2.28;;
63874;SDS011;51595;24.180;-110.296;2023-07-31T07:20:05;7.68;;;2.10;;
63874;SDS011;51595;24.180;-110.296;2023-07-31T07:22:33;5.28;;;2.38;;
63874;SDS011;51595;24.180;-110.296;2023-07-31T07:25:00;5.97;;;2.38;;
63874;SDS011;51595;24.180;-110.296;2023-07-31T07:27:27;5.45;;;2.00;;
63874;SDS011;51595;24.180;-110.296;2023-07-31T07:29:54;4.22;;;2.53;;
63874;SDS011;51595;24.180;-110.296;2023-07-31T07:32:20;4.65;;;2.33;;
63874;SDS011;51595;24.180;-110.296;2023-07-31T07:34:47;6.32;;;2.55;;
63874;SDS011;51595;24.180;-110.296;2023-07-31T07:37:14;8.95;;;3.10;;
63874;SDS011;51595;24.180;-110.296;2023-07-31T07:39:41;4.43;;;2.50;;
63874;SDS011;51595;24.180;-110.296;2023-07-31T07:42:08;8.52;;;2.10;;
63874;SDS011;51595;24.180;-110.296;2023-07-31T07:44:35;5.85;;;2.33;;
63874;SDS011;51595;24.180;-110.296;2023-07-31T07:47:02;5.25;;;2.22;;
63874;SDS011;51595;24.180;-110.296;2023-07-31T07:49:31;3.70;;;2.17;;
63874;SDS011;51595;24.180;-110.296;2023-07-31T07:52:00;3.08;;;2.00;;
63874;SDS011;51595;24.180;-110.296;2023-07-31T07:54:28;4.30;;;2.03;;
63874;SDS011;51595;24.180;-110.296;2023-07-31T07:56:56;4.65;;;2.63;;
63874;SDS011;51595;24.180;-110.296;2023-07-31T07:59:23;5.53;;;2.30;;
63874;SDS011;51595;24.180;-110.296;2023-07-31T08:01:49;9.45;;;1.98;;
63874;SDS011;51595;24.180;-110.296;2023-07-31T08:04:16;4.05;;;2.13;;
63874;SDS011;51595;24.180;-110.296;2023-07-31T08:06:45;3.33;;;1.80;;
63874;SDS011;51595;24.180;-110.296;2023-07-31T08:09:12;7.60;;;1.90;;
63874;SDS011;51595;24.180;-110.296;2023-07-31T08:11:38;3.78;;;1.60;;
63874;SDS011;51595;24.180;-110.296;2023-07-31T08:14:04;6.03;;;1.88;;
63874;SDS011;51595;24.180;-110.296;2023-07-31T08:16:31;5.57;;;1.92;;
63874;SDS011;51595;24.180;-110.296;2023-07-31T08:18:57;4.90;;;2.17;;
63874;SDS011;51595;24.180;-110.296;2023-07-31T08:21:24;8.80;;;2.38;;
63874;SDS011;51595;24.180;-110.296;2023-07-31T08:23:50;7.75;;;2.00;;
63874;SDS011;51595;24.180;-110.296;2023-07-31T08:26:17;7.18;;;1.50;;
63874;SDS011;51595;24.180;-110.296;2023-07-31T08:28:44;3.50;;;1.98;;
63874;SDS011;51595;24.180;-110.296;2023-07-31T08:31:11;5.70;;;2.63;;
63874;SDS011;51595;24.180;-110.296;2023-07-31T08:33:37;2.95;;;1.77;;
63874;SDS011;51595;24.180;-110.296;2023-07-31T08:36:05;3.75;;;1.90;;
63874;SDS011;51595;24.180;-110.296;2023-07-31T08:38:32;2.83;;;1.75;;
63874;SDS011;51595;24.180;-110.296;2023-07-31T08:40:58;2.28;;;1.83;;
63874;SDS011;51595;24.180;-110.296;2023-07-31T08:43:25;5.57;;;2.08;;
63874;SDS011;51595;24.180;-110.296;2023-07-31T08:45:53;3.13;;;1.73;;
63874;SDS011;51595;24.180;-110.296;2023-07-31T08:48:23;4.22;;;2.38;;
63874;SDS011;51595;24.180;-110.296;2023-07-31T08:50:51;3.30;;;1.58;;
63874;SDS011;51595;24.180;-110.296;2023-07-31T08:53:19;4.60;;;2.15;;
63874;SDS011;51595;24.180;-110.296;2023-07-31T08:55:46;4.50;;;2.15;;
63874;SDS011;51595;24.180;-110.296;2023-07-31T08:58:14;7.78;;;2.58;;
63874;SDS011;51595;24.180;-110.296;2023-07-31T09:00:42;5.75;;;1.75;;
63874;SDS011;51595;24.180;-110.296;2023-07-31T09:03:15;5.45;;;2.53;;
63874;SDS011;51595;24.180;-110.296;2023-07-31T09:05:44;3.58;;;2.00;;
63874;SDS011;51595;24.180;-110.296;2023-07-31T09:08:13;2.72;;;1.67;;
63874;SDS011;51595;24.180;-110.296;2023-07-31T09:10:44;5.57;;;2.10;;
63874;SDS011;51595;24.180;-110.296;2023-07-31T09:13:13;9.15;;;2.58;;
63874;SDS011;51595;24.180;-110.296;2023-07-31T09:15:40;2.10;;;1.75;;
63874;SDS011;51595;24.180;-110.296;2023-07-31T09:18:09;6.95;;;2.40;;
63874;SDS011;51595;24.180;-110.296;2023-07-31T09:20:36;4.50;;;2.42;;
63874;SDS011;51595;24.180;-110.296;2023-07-31T09:23:07;4.10;;;2.15;;
63874;SDS011;51595;24.180;-110.296;2023-07-31T09:25:36;4.00;;;1.75;;
63874;SDS011;51595;24.180;-110.296;2023-07-31T09:28:05;5.45;;;2.17;;
63874;SDS011;51595;24.180;-110.296;2023-07-31T09:30:46;9.20;;;2.08;;
63874;SDS011;51595;24.180;-110.296;2023-07-31T09:33:16;8.70;;;2.30;;
63874;SDS011;51595;24.180;-110.296;2023-07-31T09:35:46;3.25;;;1.73;;
63874;SDS011;51595;24.180;-110.296;2023-07-31T09:38:15;7.22;;;2.42;;
63874;SDS011;51595;24.180;-110.296;2023-07-31T09:40:46;10.02;;;2.38;;
63874;SDS011;51595;24.180;-110.296;2023-07-31T09:43:16;7.35;;;2.47;;
63874;SDS011;51595;24.180;-110.296;2023-07-31T09:45:44;3.00;;;1.60;;
63874;SDS011;51595;24.180;-110.296;2023-07-31T09:48:14;8.45;;;1.80;;
63874;SDS011;51595;24.180;-110.296;2023-07-31T09:50:43;4.47;;;2.00;;
63874;SDS011;51595;24.180;-110.296;2023-07-31T09:53:12;5.05;;;2.05;;
63874;SDS011;51595;24.180;-110.296;2023-07-31T09:55:39;3.90;;;2.33;;
63874;SDS011;51595;24.180;-110.296;2023-07-31T09:58:11;5.10;;;1.80;;
63874;SDS011;51595;24.180;-110.296;2023-07-31T10:00:38;5.30;;;2.05;;
63874;SDS011;51595;24.180;-110.296;2023-07-31T10:03:06;5.18;;;2.40;;
63874;SDS011;51595;24.180;-110.296;2023-07-31T10:05:44;5.47;;;2.03;;
63874;SDS011;51595;24.180;-110.296;2023-07-31T10:08:15;5.43;;;2.35;;
63874;SDS011;51595;24.180;-110.296;2023-07-31T10:10:44;6.75;;;2.08;;
63874;SDS011;51595;24.180;-110.296;2023-07-31T10:13:11;4.68;;;2.10;;
63874;SDS011;51595;24.180;-110.296;2023-07-31T10:15:39;4.75;;;2.03;;
63874;SDS011;51595;24.180;-110.296;2023-07-31T10:18:08;9.02;;;2.75;;
63874;SDS011;51595;24.180;-110.296;2023-07-31T10:20:36;7.00;;;2.63;;
63874;SDS011;51595;24.180;-110.296;2023-07-31T10:23:04;5.22;;;2.35;;
63874;SDS011;51595;24.180;-110.296;2023-07-31T10:25:32;5.90;;;2.35;;
63874;SDS011;51595;24.180;-110.296;2023-07-31T10:27:59;10.73;;;2.00;;
63874;SDS011;51595;24.180;-110.296;2023-07-31T10:30:27;4.05;;;2.22;;
63874;SDS011;51595;24.180;-110.296;2023-07-31T10:32:55;11.82;;;2.42;;
63874;SDS011;51595;24.180;-110.296;2023-07-31T10:35:23;8.02;;;2.42;;
63874;SDS011;51595;24.180;-110.296;2023-07-31T10:37:51;4.40;;;1.90;;
63874;SDS011;51595;24.180;-110.296;2023-07-31T10:40:23;10.80;;;2.00;;
63874;SDS011;51595;24.180;-110.296;2023-07-31T10:42:54;9.80;;;2.05;;
63874;SDS011;51595;24.180;-110.296;2023-07-31T10:45:36;3.42;;;1.85;;
63874;SDS011;51595;24.180;-110.296;2023-07-31T10:48:15;3.10;;;1.50;;
63874;SDS011;51595;24.180;-110.296;2023-07-31T10:50:47;8.10;;;2.58;;
63874;SDS011;51595;24.180;-110.296;2023-07-31T10:53:29;10.45;;;2.35;;
63874;SDS011;51595;24.180;-110.296;2023-07-31T10:56:00;6.20;;;2.50;;
63874;SDS011;51595;24.180;-110.296;2023-07-31T10:58:41;6.10;;;2.20;;
63874;SDS011;51595;24.180;-110.296;2023-07-31T11:01:11;9.82;;;2.22;;
63874;SDS011;51595;24.180;-110.296;2023-07-31T11:06:08;4.85;;;2.17;;
63874;SDS011;51595;24.180;-110.296;2023-07-31T11:08:36;4.65;;;2.05;;
63874;SDS011;51595;24.180;-110.296;2023-07-31T11:11:10;2.65;;;1.67;;
63874;SDS011;51595;24.180;-110.296;2023-07-31T11:16:16;4.22;;;1.58;;
63874;SDS011;51595;24.180;-110.296;2023-07-31T11:18:45;4.10;;;1.92;;
63874;SDS011;51595;24.180;-110.296;2023-07-31T11:21:23;4.95;;;2.30;;
63874;SDS011;51595;24.180;-110.296;2023-07-31T11:23:56;5.78;;;2.08;;
63874;SDS011;51595;24.180;-110.296;2023-07-31T11:26:24;4.25;;;2.05;;
63874;SDS011;51595;24.180;-110.296;2023-07-31T11:28:52;6.60;;;2.35;;
63874;SDS011;51595;24.180;-110.296;2023-07-31T11:31:19;2.83;;;1.73;;
63874;SDS011;51595;24.180;-110.296;2023-07-31T11:33:45;2.58;;;2.08;;
63874;SDS011;51595;24.180;-110.296;2023-07-31T11:36:19;6.40;;;2.25;;
63874;SDS011;51595;24.180;-110.296;2023-07-31T11:38:46;7.85;;;2.75;;
63874;SDS011;51595;24.180;-110.296;2023-07-31T11:41:14;8.30;;;1.63;;
63874;SDS011;51595;24.180;-110.296;2023-07-31T11:43:42;11.60;;;2.60;;
63874;SDS011;51595;24.180;-110.296;2023-07-31T11:46:09;6.53;;;2.05;;
63874;SDS011;51595;24.180;-110.296;2023-07-31T11:48:36;6.28;;;1.95;;
63874;SDS011;51595;24.180;-110.296;2023-07-31T11:51:04;6.55;;;2.13;;
63874;SDS011;51595;24.180;-110.296;2023-07-31T11:53:35;4.60;;;2.28;;
63874;SDS011;51595;24.180;-110.296;2023-07-31T11:56:12;16.92;;;2.95;;
63874;SDS011;51595;24.180;-110.296;2023-07-31T11:58:39;4.35;;;1.98;;
63874;SDS011;51595;24.180;-110.296;2023-07-31T12:01:07;5.68;;;2.13;;
63874;SDS011;51595;24.180;-110.296;2023-07-31T12:03:34;3.47;;;1.92;;
63874;SDS011;51595;24.180;-110.296;2023-07-31T12:06:03;6.95;;;1.98;;
63874;SDS011;51595;24.180;-110.296;2023-07-31T12:08:31;4.40;;;2.22;;
63874;SDS011;51595;24.180;-110.296;2023-07-31T12:11:04;6.90;;;2.28;;
63874;SDS011;51595;24.180;-110.296;2023-07-31T12:13:34;5.63;;;2.28;;
63874;SDS011;51595;24.180;-110.296;2023-07-31T12:16:03;7.93;;;1.98;;
63874;SDS011;51595;24.180;-110.296;2023-07-31T12:18:33;4.63;;;1.92;;
63874;SDS011;51595;24.180;-110.296;2023-07-31T12:21:03;4.60;;;2.30;;
63874;SDS011;51595;24.180;-110.296;2023-07-31T12:23:32;4.57;;;2.00;;
63874;SDS011;51595;24.180;-110.296;2023-07-31T12:28:29;5.15;;;1.67;;
63874;SDS011;51595;24.180;-110.296;2023-07-31T12:30:57;2.50;;;1.33;;
63874;SDS011;51595;24.180;-110.296;2023-07-31T12:33:30;3.38;;;1.77;;
63874;SDS011;51595;24.180;-110.296;2023-07-31T12:35:57;5.22;;;1.80;;
63874;SDS011;51595;24.180;-110.296;2023-07-31T12:38:26;4.70;;;1.90;;
63874;SDS011;51595;24.180;-110.296;2023-07-31T12:40:52;5.35;;;2.13;;
63874;SDS011;51595;24.180;-110.296;2023-07-31T12:43:19;7.70;;;1.95;;
63874;SDS011;51595;24.180;-110.296;2023-07-31T12:45:45;5.28;;;2.03;;
63874;SDS011;51595;24.180;-110.296;2023-07-31T12:48:13;7.15;;;2.05;;
63874;SDS011;51595;24.180;-110.296;2023-07-31T12:50:40;4.50;;;1.60;;
63874;SDS011;51595;24.180;-110.296;2023-07-31T12:53:06;5.30;;;1.83;;
63874;SDS011;51595;24.180;-110.296;2023-07-31T12:55:37;3.60;;;1.67;;
63874;SDS011;51595;24.180;-110.296;2023-07-31T12:58:04;6.40;;;2.13;;
63874;SDS011;51595;24.180;-110.296;2023-07-31T13:00:30;3.28;;;1.50;;
63874;SDS011;51595;24.180;-110.296;2023-07-31T13:02:57;7.95;;;1.90;;
63874;SDS011;51595;24.180;-110.296;2023-07-31T13:05:24;5.22;;;1.80;;
63874;SDS011;51595;24.180;-110.296;2023-07-31T13:07:51;2.33;;;1.60;;
63874;SDS011;51595;24.180;-110.296;2023-07-31T13:10:18;3.80;;;1.45;;
63874;SDS011;51595;24.180;-110.296;2023-07-31T13:12:45;6.78;;;1.73;;
63874;SDS011;51595;24.180;-110.296;2023-07-31T13:15:12;2.53;;;1.60;;
63874;SDS011;51595;24.180;-110.296;2023-07-31T13:17:40;5.10;;;1.67;;
63874;SDS011;51595;24.180;-110.296;2023-07-31T13:20:07;2.88;;;1.42;;
63874;SDS011;51595;24.180;-110.296;2023-07-31T13:22:35;8.05;;;2.00;;
63874;SDS011;51595;24.180;-110.296;2023-07-31T13:25:02;4.30;;;1.73;;
63874;SDS011;51595;24.180;-110.296;2023-07-31T13:27:29;3.55;;;2.00;;
63874;SDS011;51595;24.180;-110.296;2023-07-31T13:29:55;3.47;;;1.50;;
63874;SDS011;51595;24.180;-110.296;2023-07-31T13:32:22;7.07;;;1.75;;
63874;SDS011;51595;24.180;-110.296;2023-07-31T13:34:48;6.03;;;1.50;;
63874;SDS011;51595;24.180;-110.296;2023-07-31T13:37:18;4.63;;;1.88;;
63874;SDS011;51595;24.180;-110.296;2023-07-31T13:39:45;4.07;;;1.80;;
63874;SDS011;51595;24.180;-110.296;2023-07-31T13:42:11;9.15;;;1.65;;
63874;SDS011;51595;24.180;-110.296;2023-07-31T13:44:38;7.75;;;1.40;;
63874;SDS011;51595;24.180;-110.296;2023-07-31T13:47:05;3.35;;;1.58;;
63874;SDS011;51595;24.180;-110.296;2023-07-31T13:49:32;3.08;;;1.23;;
63874;SDS011;51595;24.180;-110.296;2023-07-31T13:51:59;5.63;;;1.85;;
63874;SDS011;51595;24.180;-110.296;2023-07-31T13:54:28;8.18;;;1.33;;
63874;SDS011;51595;24.180;-110.296;2023-07-31T13:56:56;7.85;;;1.05;;
63874;SDS011;51595;24.180;-110.296;2023-07-31T13:59:23;5.57;;;1.70;;
63874;SDS011;51595;24.180;-110.296;2023-07-31T14:01:49;3.63;;;2.00;;
63874;SDS011;51595;24.180;-110.296;2023-07-31T14:04:16;2.90;;;1.80;;
63874;SDS011;51595;24.180;-110.296;2023-07-31T14:06:45;5.70;;;2.35;;
63874;SDS011;51595;24.180;-110.296;2023-07-31T14:09:14;17.52;;;2.40;;
63874;SDS011;51595;24.180;-110.296;2023-07-31T14:11:42;6.25;;;2.42;;
63874;SDS011;51595;24.180;-110.296;2023-07-31T14:14:09;5.30;;;2.05;;
63874;SDS011;51595;24.180;-110.296;2023-07-31T14:16:36;7.97;;;1.90;;
63874;SDS011;51595;24.180;-110.296;2023-07-31T14:19:04;3.58;;;1.42;;
63874;SDS011;51595;24.180;-110.296;2023-07-31T14:21:36;4.07;;;1.83;;
63874;SDS011;51595;24.180;-110.296;2023-07-31T14:24:06;7.85;;;1.77;;